Time;durP1;ratioP1;P1;durP2;ratioP2;P2;SDS_P1;SDS_P2;PMS_P1;PMS_P2;Temp;Humidity;BMP_temperature;BMP_pressure;BME280_temperature;BME280_humidity;BME280_pressure;Samples;Min_cycle;Max_cycle;Signal;HPM_P1;HPM_P2
2022/01/15 00:01:31;;;;;;;2.33;0.95;;;11.40;68.10;;;;;;6158595;23;20025;-75
2022/01/15 00:03:57;;;;;;;1.05;0.60;;;11.50;68.10;;;;;;6132523;23;20399;-77
2022/01/15 00:06:23;;;;;;;1.38;0.63;;;11.40;68.10;;;;;;6158262;23;20084;-77
2022/01/15 00:08:49;;;;;;;1.58;0.60;;;11.40;68.10;;;;;;6157215;23;20048;-76
2022/01/15 00:11:14;;;;;;;1.55;0.75;;;11.50;68.20;;;;;;6158158;23;20021;-76
2022/01/15 00:13:43;;;;;;;1.90;0.52;;;11.40;68.10;;;;;;6158202;23;20135;-76
2022/01/15 00:16:12;;;;;;;1.67;0.77;;;11.40;68.10;;;;;;6158056;23;20018;-75
2022/01/15 00:18:48;;;;;;;1.20;0.60;;;11.40;68.10;;;;;;6158008;23;20025;-76
2022/01/15 00:21:14;;;;;;;1.13;0.60;;;11.50;68.20;;;;;;6158394;23;20013;-77
2022/01/15 00:23:41;;;;;;;1.25;0.73;;;11.40;68.10;;;;;;6156633;23;20026;-76
2022/01/15 00:26:07;;;;;;;2.45;0.85;;;11.40;68.10;;;;;;6157532;23;20357;-75
2022/01/15 00:28:33;;;;;;;1.00;0.43;;;11.40;68.10;;;;;;6131935;23;20104;-77
2022/01/15 00:30:58;;;;;;;1.45;0.50;;;11.40;68.10;;;;;;6158455;23;20018;-76
2022/01/15 00:33:25;;;;;;;1.10;0.63;;;11.40;68.10;;;;;;6158686;23;20028;-76
2022/01/15 00:35:52;;;;;;;0.82;0.50;;;11.40;68.10;;;;;;6157817;23;20399;-77
2022/01/15 00:38:18;;;;;;;1.33;0.60;;;11.40;68.10;;;;;;6158328;23;20049;-76
2022/01/15 00:40:44;;;;;;;1.13;0.52;;;11.40;68.10;;;;;;6156877;23;20442;-75
2022/01/15 00:43:10;;;;;;;1.00;0.70;;;11.40;68.10;;;;;;6158643;23;20388;-77
2022/01/15 00:45:35;;;;;;;1.17;0.65;;;11.50;68.20;;;;;;6156885;23;20025;-77
2022/01/15 00:48:02;;;;;;;1.60;0.68;;;11.40;68.10;;;;;;6157694;23;20053;-75
2022/01/15 00:50:28;;;;;;;1.38;0.75;;;11.40;68.10;;;;;;6156770;23;20018;-76
2022/01/15 00:52:53;;;;;;;1.10;0.50;;;11.40;68.20;;;;;;6157621;23;20029;-75
2022/01/15 00:55:20;;;;;;;0.90;0.50;;;11.40;68.10;;;;;;6157686;23;20450;-75
2022/01/15 00:57:46;;;;;;;1.08;0.47;;;11.40;68.10;;;;;;6156746;23;20018;-75
2022/01/15 01:00:17;;;;;;;0.90;0.50;;;11.40;68.20;;;;;;6157596;23;20032;-76
2022/01/15 01:02:43;;;;;;;2.33;0.75;;;11.40;68.20;;;;;;6131740;23;20025;-75
2022/01/15 01:05:10;;;;;;;1.58;0.50;;;11.40;68.20;;;;;;6156674;23;20017;-75
2022/01/15 01:07:36;;;;;;;0.90;0.40;;;11.40;68.20;;;;;;6157759;23;20032;-77
2022/01/15 01:23:04;;;;;;;1.20;0.40;;;11.40;68.20;;;;;;6156692;23;20089;-75
2022/01/15 01:25:37;;;;;;;0.70;0.50;;;11.40;68.20;;;;;;6157415;23;20068;-76
2022/01/15 01:28:11;;;;;;;1.17;0.47;;;11.40;68.20;;;;;;6157720;23;20014;-75
2022/01/15 01:30:53;;;;;;;0.85;0.43;;;11.40;68.20;;;;;;6156914;23;20410;-75
2022/01/15 01:35:56;;;;;;;1.20;0.57;;;11.40;68.20;;;;;;6157822;23;20017;-76
2022/01/15 01:38:30;;;;;;;0.73;0.40;;;11.40;68.20;;;;;;6157439;23;20431;-75
2022/01/15 01:40:58;;;;;;;0.50;0.40;;;11.40;68.20;;;;;;6156197;23;20021;-76
2022/01/15 01:46:11;;;;;;;1.33;0.70;;;11.50;68.30;;;;;;6158042;23;20061;-76
2022/01/15 01:48:37;;;;;;;2.08;0.73;;;11.40;68.20;;;;;;6156300;23;20494;-76
2022/01/15 01:51:06;;;;;;;1.05;0.57;;;11.40;68.20;;;;;;6157603;23;20033;-77
2022/01/15 01:53:32;;;;;;;0.85;0.50;;;11.40;68.20;;;;;;6156556;23;20021;-76
2022/01/15 01:55:58;;;;;;;0.93;0.40;;;11.40;68.20;;;;;;6157525;23;20021;-76
2022/01/15 01:58:24;;;;;;;1.05;0.50;;;11.40;68.20;;;;;;6158830;23;20025;-76
2022/01/15 02:00:49;;;;;;;1.67;0.50;;;11.40;68.20;;;;;;6159388;23;20036;-74
2022/01/15 02:03:15;;;;;;;1.10;0.50;;;11.40;68.20;;;;;;6158161;23;20080;-76
2022/01/15 02:05:41;;;;;;;0.93;0.65;;;11.40;68.20;;;;;;6159695;23;20026;-77
2022/01/15 02:08:06;;;;;;;0.47;0.30;;;11.40;68.20;;;;;;6159177;23;20018;-77
2022/01/15 02:10:33;;;;;;;1.17;0.50;;;11.40;68.20;;;;;;6158696;23;20056;-75
2022/01/15 02:13:00;;;;;;;0.70;0.40;;;11.40;68.20;;;;;;6159227;23;20048;-76
2022/01/15 02:15:27;;;;;;;0.70;0.50;;;11.40;68.20;;;;;;6158249;23;20021;-75
2022/01/15 02:17:54;;;;;;;1.70;0.68;;;11.40;68.10;;;;;;6159234;23;20068;-75
2022/01/15 02:25:49;;;;;;;1.25;0.60;;;11.40;68.20;;;;;;6158978;23;20419;-76
2022/01/15 02:28:16;;;;;;;0.75;0.32;;;11.40;68.20;;;;;;6133064;23;20088;-74
2022/01/15 02:30:42;;;;;;;1.33;0.43;;;11.50;68.20;;;;;;6158392;23;20060;-76
2022/01/15 02:33:09;;;;;;;0.82;0.50;;;11.50;68.20;;;;;;6158084;23;20018;-75
2022/01/15 02:35:35;;;;;;;0.98;0.40;;;11.40;68.20;;;;;;6158111;23;20022;-75
2022/01/15 02:38:09;;;;;;;0.55;0.35;;;11.40;68.20;;;;;;6157635;23;20018;-74
2022/01/15 02:40:35;;;;;;;0.80;0.50;;;11.40;68.20;;;;;;6157502;23;20022;-77
2022/01/15 02:43:07;;;;;;;0.77;0.47;;;11.40;68.20;;;;;;6158291;23;20064;-75
2022/01/15 02:45:34;;;;;;;1.05;0.38;;;11.40;68.20;;;;;;6157563;23;20063;-75
2022/01/15 02:48:15;;;;;;;0.82;0.50;;;11.40;68.20;;;;;;6157525;23;20021;-77
2022/01/15 02:50:42;;;;;;;0.68;0.40;;;11.40;68.20;;;;;;6158809;23;20032;-76
2022/01/15 02:53:10;;;;;;;0.60;0.38;;;11.40;68.20;;;;;;6159433;23;20280;-76
2022/01/15 02:55:41;;;;;;;1.02;0.43;;;11.40;68.20;;;;;;6158533;23;20060;-75
2022/01/15 02:58:07;;;;;;;1.00;0.50;;;11.40;68.20;;;;;;6159364;23;20021;-75
2022/01/15 03:00:34;;;;;;;0.90;0.43;;;11.40;68.20;;;;;;6158048;23;20053;-76
2022/01/15 03:02:59;;;;;;;0.90;0.40;;;11.40;68.20;;;;;;6158834;23;20068;-77
2022/01/15 03:05:25;;;;;;;0.82;0.40;;;11.40;68.20;;;;;;6159475;23;20013;-75
2022/01/15 03:07:51;;;;;;;0.80;0.40;;;11.40;68.20;;;;;;6158732;23;20017;-75
2022/01/15 03:10:17;;;;;;;0.70;0.40;;;11.40;67.70;;;;;;6157647;23;20423;-75
2022/01/15 03:12:42;;;;;;;0.60;0.30;;;11.40;68.20;;;;;;6159510;23;20064;-76
2022/01/15 03:15:09;;;;;;;0.50;0.30;;;11.40;68.20;;;;;;6157102;23;20093;-74
2022/01/15 03:17:35;;;;;;;0.43;0.20;;;11.40;68.20;;;;;;6157510;23;20017;-77
2022/01/15 03:20:04;;;;;;;0.60;0.20;;;11.40;68.20;;;;;;6157684;23;20052;-76
2022/01/15 03:22:30;;;;;;;0.50;0.20;;;11.40;68.20;;;;;;6157526;23;20418;-76
2022/01/15 03:24:56;;;;;;;0.63;0.30;;;11.40;68.20;;;;;;6159415;23;20028;-77
2022/01/15 03:27:24;;;;;;;0.80;0.38;;;11.40;68.20;;;;;;6158391;23;20410;-77
2022/01/15 03:29:51;;;;;;;0.98;0.47;;;11.40;68.20;;;;;;6158903;23;20014;-75
2022/01/15 03:32:17;;;;;;;0.70;0.30;;;11.40;68.20;;;;;;6157779;23;20040;-76
2022/01/15 03:34:43;;;;;;;0.32;0.20;;;11.40;68.10;;;;;;6158284;23;20013;-76
2022/01/15 03:37:09;;;;;;;0.75;0.40;;;11.40;68.20;;;;;;6157073;23;20032;-74
2022/01/15 03:39:35;;;;;;;0.22;0.15;;;11.40;68.10;;;;;;6158421;23;20017;-77
2022/01/15 03:42:02;;;;;;;0.60;0.30;;;11.40;68.20;;;;;;6158405;23;20064;-75
2022/01/15 03:44:28;;;;;;;0.38;0.25;;;11.40;68.20;;;;;;6157566;23;20060;-76
2022/01/15 03:46:54;;;;;;;0.55;0.30;;;11.40;68.20;;;;;;6133174;23;20025;-75
2022/01/15 03:49:20;;;;;;;0.73;0.40;;;11.40;68.10;;;;;;6157894;23;20419;-77
2022/01/15 03:51:46;;;;;;;0.63;0.30;;;11.40;68.10;;;;;;6159085;23;20025;-76
2022/01/15 03:54:11;;;;;;;0.65;0.30;;;11.50;68.20;;;;;;6157118;23;20434;-74
2022/01/15 03:56:37;;;;;;;0.50;0.25;;;11.40;68.20;;;;;;6159545;23;20022;-76
2022/01/15 03:59:03;;;;;;;0.60;0.30;;;11.40;68.20;;;;;;6158336;23;20057;-75
2022/01/15 04:01:28;;;;;;;0.57;0.20;;;11.40;68.20;;;;;;6157488;23;20020;-74
2022/01/15 04:03:54;;;;;;;0.65;0.30;;;11.40;68.20;;;;;;6158168;23;20408;-75
2022/01/15 04:06:20;;;;;;;0.55;0.30;;;11.40;68.20;;;;;;6132511;23;20029;-74
2022/01/15 04:08:45;;;;;;;0.50;0.20;;;11.40;68.20;;;;;;6157925;23;20096;-75
2022/01/15 04:11:12;;;;;;;0.40;0.20;;;11.40;68.20;;;;;;6157220;23;20021;-75
2022/01/15 04:13:38;;;;;;;0.50;0.30;;;11.40;68.20;;;;;;6157325;23;20024;-75
2022/01/15 04:16:04;;;;;;;0.30;0.20;;;11.40;68.20;;;;;;6157914;23;20135;-76
2022/01/15 04:18:36;;;;;;;0.40;0.30;;;11.40;68.20;;;;;;6157133;23;20025;-75
2022/01/15 04:21:02;;;;;;;0.40;0.20;;;11.40;68.20;;;;;;6158408;23;20400;-76
2022/01/15 04:23:28;;;;;;;0.45;0.20;;;11.40;68.20;;;;;;6156976;23;20424;-75
2022/01/15 04:25:53;;;;;;;0.50;0.30;;;11.40;68.20;;;;;;6158106;23;20017;-75
2022/01/15 04:28:19;;;;;;;0.70;0.30;;;11.40;68.20;;;;;;6158098;23;20026;-76
2022/01/15 04:30:48;;;;;;;0.38;0.20;;;11.40;68.20;;;;;;6158266;23;20056;-74
2022/01/15 04:33:13;;;;;;;0.60;0.30;;;11.40;68.20;;;;;;6156991;23;20080;-74
2022/01/15 04:35:40;;;;;;;0.45;0.20;;;11.50;68.30;;;;;;6158710;23;20339;-75
2022/01/15 04:38:10;;;;;;;0.85;0.40;;;11.40;68.20;;;;;;6157262;23;20017;-77
2022/01/15 04:40:36;;;;;;;0.57;0.20;;;11.40;68.20;;;;;;6157903;23;20032;-77
2022/01/15 04:43:02;;;;;;;0.20;0.20;;;11.40;68.20;;;;;;6156944;23;20451;-75
2022/01/15 04:45:27;;;;;;;0.57;0.30;;;11.40;68.20;;;;;;6156808;23;20091;-77
2022/01/15 04:47:53;;;;;;;0.50;0.30;;;11.40;68.20;;;;;;6157597;23;20025;-77
2022/01/15 04:50:20;;;;;;;0.40;0.20;;;11.40;68.20;;;;;;6156314;23;20029;-76
2022/01/15 04:52:46;;;;;;;0.30;0.20;;;11.40;68.20;;;;;;6156507;23;20044;-74
2022/01/15 04:55:12;;;;;;;0.98;0.40;;;11.40;68.20;;;;;;6157814;23;20013;-74
2022/01/15 04:57:40;;;;;;;0.32;0.20;;;11.40;68.20;;;;;;6158696;23;20096;-76
2022/01/15 05:00:09;;;;;;;0.15;0.10;;;11.40;68.20;;;;;;6132931;23;20028;-77
2022/01/15 05:02:35;;;;;;;0.68;0.30;;;11.40;68.10;;;;;;6153495;23;20013;-74
2022/01/15 05:05:02;;;;;;;0.30;0.20;;;11.40;68.20;;;;;;6157101;23;20022;-75
2022/01/15 05:07:28;;;;;;;0.20;0.10;;;11.40;68.10;;;;;;6157901;23;20026;-74
2022/01/15 05:09:53;;;;;;;0.40;0.20;;;11.40;68.10;;;;;;6157145;23;20084;-74
2022/01/15 05:12:39;;;;;;;0.40;0.17;;;11.40;68.20;;;;;;6157141;23;20026;-75
2022/01/15 05:15:05;;;;;;;0.43;0.10;;;11.40;68.20;;;;;;6156268;23;20017;-75
2022/01/15 05:17:31;;;;;;;0.50;0.20;;;11.40;68.20;;;;;;6157906;23;20056;-76
2022/01/15 05:19:57;;;;;;;0.30;0.10;;;11.40;68.20;;;;;;6158471;23;20029;-77
2022/01/15 05:22:22;;;;;;;0.17;0.10;;;11.40;68.20;;;;;;6158094;23;20474;-75
2022/01/15 05:24:48;;;;;;;0.20;0.10;;;11.40;68.20;;;;;;6158375;23;20065;-76
2022/01/15 05:27:14;;;;;;;0.30;0.10;;;11.40;68.20;;;;;;6156249;23;20092;-76
2022/01/15 05:29:40;;;;;;;0.10;0.10;;;11.40;68.30;;;;;;6156585;23;20025;-75
2022/01/15 05:32:06;;;;;;;0.50;0.25;;;11.40;68.30;;;;;;6156947;23;20316;-76
2022/01/15 05:34:32;;;;;;;0.10;0.10;;;11.40;68.30;;;;;;6158611;23;20041;-75
2022/01/15 05:36:58;;;;;;;0.10;0.10;;;11.40;68.30;;;;;;6160404;23;20025;-75
2022/01/15 05:39:23;;;;;;;0.30;0.10;;;11.40;68.30;;;;;;6158544;23;20296;-76
2022/01/15 05:41:49;;;;;;;0.43;0.13;;;11.40;68.20;;;;;;6134096;23;20021;-76
2022/01/15 05:44:15;;;;;;;0.30;0.10;;;11.40;68.30;;;;;;6159581;23;20419;-74
2022/01/15 05:46:41;;;;;;;0.20;0.10;;;11.40;68.30;;;;;;6159166;23;20374;-75
2022/01/15 05:49:06;;;;;;;0.20;0.20;;;11.40;68.30;;;;;;6157984;23;20022;-76
2022/01/15 05:51:32;;;;;;;0.30;0.10;;;11.40;68.30;;;;;;6158510;23;20125;-76
2022/01/15 05:53:59;;;;;;;0.10;0.10;;;11.40;68.30;;;;;;6158809;23;20088;-75
2022/01/15 05:56:26;;;;;;;0.10;0.10;;;11.40;68.30;;;;;;6158197;23;20095;-76
2022/01/15 05:58:51;;;;;;;0.30;0.10;;;11.40;68.30;;;;;;6159915;23;20439;-75
2022/01/15 06:01:18;;;;;;;0.40;0.10;;;11.40;68.30;;;;;;6159107;23;20109;-74
2022/01/15 06:03:43;;;;;;;0.30;0.17;;;11.40;68.30;;;;;;6157943;23;20022;-75
2022/01/15 06:06:09;;;;;;;0.10;0.10;;;11.40;68.30;;;;;;6158752;23;20042;-76
2022/01/15 06:08:35;;;;;;;0.08;0.05;;;11.40;68.30;;;;;;6158354;23;20092;-76
2022/01/15 06:11:00;;;;;;;0.35;0.13;;;11.40;68.30;;;;;;6158498;23;20079;-76
2022/01/15 06:13:26;;;;;;;0.22;0.10;;;11.40;68.30;;;;;;6160078;23;20088;-77
2022/01/15 06:15:52;;;;;;;0.13;0.10;;;11.40;68.30;;;;;;6159060;23;20025;-76
2022/01/15 06:18:17;;;;;;;0.15;0.10;;;11.40;68.30;;;;;;6159642;23;20277;-76
2022/01/15 06:20:43;;;;;;;0.10;0.10;;;11.40;68.30;;;;;;6158840;23;20017;-76
2022/01/15 06:23:09;;;;;;;1.02;0.20;;;11.40;68.30;;;;;;6158144;23;20053;-76
2022/01/15 06:25:34;;;;;;;0.35;0.10;;;11.40;68.30;;;;;;6159757;23;20072;-77
2022/01/15 06:28:00;;;;;;;0.13;0.10;;;11.40;68.30;;;;;;6157716;23;20375;-74
2022/01/15 06:30:26;;;;;;;0.25;0.10;;;11.40;68.30;;;;;;6159185;23;20029;-74
2022/01/15 06:32:51;;;;;;;0.15;0.10;;;11.40;68.30;;;;;;6158916;23;20029;-74
2022/01/15 06:35:17;;;;;;;0.25;0.10;;;11.40;68.30;;;;;;6159049;23;20056;-75
2022/01/15 06:37:47;;;;;;;0.40;0.10;;;11.40;68.30;;;;;;6158991;23;20018;-77
2022/01/15 06:40:15;;;;;;;0.90;0.40;;;11.40;68.30;;;;;;6158183;23;20293;-75
2022/01/15 06:42:42;;;;;;;0.75;0.28;;;11.40;68.30;;;;;;6157920;23;20024;-74
2022/01/15 06:45:08;;;;;;;0.40;0.20;;;11.40;68.30;;;;;;6157371;23;20018;-75
2022/01/15 06:47:34;;;;;;;0.45;0.20;;;11.40;68.20;;;;;;6159063;23;20029;-75
2022/01/15 06:50:04;;;;;;;0.22;0.20;;;11.40;68.20;;;;;;6158933;23;20025;-75
2022/01/15 06:52:35;;;;;;;0.40;0.10;;;11.40;68.20;;;;;;6157604;23;20036;-76
2022/01/15 06:55:01;;;;;;;0.20;0.10;;;11.40;68.10;;;;;;6157435;23;20037;-78
2022/01/15 06:57:27;;;;;;;1.08;0.20;;;11.40;68.10;;;;;;6159295;23;20032;-75
2022/01/15 06:59:53;;;;;;;0.30;0.10;;;11.40;68.10;;;;;;6157443;23;20022;-75
2022/01/15 07:02:18;;;;;;;0.88;0.20;;;11.40;68.10;;;;;;6158584;23;20025;-75
2022/01/15 07:04:44;;;;;;;1.45;0.28;;;11.40;68.10;;;;;;6158136;23;20097;-74
2022/01/15 07:07:10;;;;;;;0.35;0.10;;;11.40;68.10;;;;;;6158053;23;20025;-75
2022/01/15 07:09:35;;;;;;;0.20;0.10;;;11.40;68.10;;;;;;6157188;23;20049;-74
2022/01/15 07:12:02;;;;;;;0.47;0.13;;;11.40;68.10;;;;;;6158751;23;20101;-76
2022/01/15 07:14:27;;;;;;;0.30;0.10;;;11.40;68.20;;;;;;6159270;23;20028;-74
2022/01/15 07:16:53;;;;;;;0.50;0.20;;;11.40;68.20;;;;;;6157857;23;20017;-74
2022/01/15 07:19:19;;;;;;;0.38;0.20;;;11.40;68.20;;;;;;6159015;23;20435;-76
2022/01/15 07:21:46;;;;;;;0.30;0.10;;;11.40;68.20;;;;;;6157195;23;20028;-76
2022/01/15 07:24:12;;;;;;;0.30;0.10;;;11.40;68.20;;;;;;6157216;23;20028;-74
2022/01/15 07:26:37;;;;;;;0.75;0.20;;;11.40;68.20;;;;;;6159014;23;20021;-77
2022/01/15 07:29:05;;;;;;;0.40;0.10;;;11.40;68.20;;;;;;6157896;23;20013;-74
2022/01/15 07:31:30;;;;;;;0.30;0.10;;;11.40;68.20;;;;;;6159333;23;20356;-75
2022/01/15 07:33:56;;;;;;;0.25;0.20;;;11.40;68.20;;;;;;6159005;23;20048;-76
2022/01/15 07:36:22;;;;;;;0.93;0.30;;;11.40;68.20;;;;;;6157442;23;20493;-74
2022/01/15 07:38:48;;;;;;;0.60;0.20;;;11.40;68.30;;;;;;6157599;23;20013;-76
2022/01/15 07:41:14;;;;;;;0.20;0.10;;;11.40;68.30;;;;;;6158249;23;20018;-77
2022/01/15 07:43:40;;;;;;;0.40;0.10;;;11.40;68.20;;;;;;6158626;23;20406;-75
2022/01/15 07:46:06;;;;;;;0.30;0.20;;;11.40;68.30;;;;;;6156920;23;20036;-75
2022/01/15 07:48:31;;;;;;;0.40;0.10;;;11.40;68.30;;;;;;6158312;23;20025;-74
2022/01/15 07:50:57;;;;;;;0.30;0.20;;;11.40;68.30;;;;;;6157005;23;20367;-77
2022/01/15 07:53:23;;;;;;;0.50;0.20;;;11.40;68.30;;;;;;6158447;23;20025;-77
2022/01/15 07:55:49;;;;;;;0.10;0.10;;;11.40;68.30;;;;;;6156988;23;20030;-75
2022/01/15 07:58:14;;;;;;;0.50;0.20;;;11.40;68.20;;;;;;6157415;23;20039;-74
2022/01/15 08:00:41;;;;;;;0.17;0.08;;;11.40;68.30;;;;;;6157747;23;20304;-74
2022/01/15 08:03:07;;;;;;;0.73;0.10;;;11.40;68.30;;;;;;6158263;23;20088;-76
2022/01/15 08:05:34;;;;;;;0.30;0.20;;;11.40;68.30;;;;;;6159124;23;20020;-75
2022/01/15 08:07:59;;;;;;;0.52;0.20;;;11.40;68.30;;;;;;6157308;23;20053;-75
2022/01/15 08:10:25;;;;;;;0.52;0.20;;;11.40;68.30;;;;;;6158303;23;20033;-76
2022/01/15 08:12:51;;;;;;;0.63;0.20;;;11.40;68.30;;;;;;6157110;23;20084;-77
2022/01/15 08:15:19;;;;;;;1.00;0.13;;;11.40;68.30;;;;;;6157241;23;20017;-77
2022/01/15 08:17:45;;;;;;;0.63;0.17;;;11.40;68.30;;;;;;6158527;23;20021;-76
2022/01/15 08:20:12;;;;;;;0.10;0.05;;;11.40;68.30;;;;;;6157984;23;20063;-77
2022/01/15 08:22:40;;;;;;;0.38;0.20;;;11.40;68.20;;;;;;6158114;23;20022;-75
2022/01/15 08:25:06;;;;;;;0.30;0.20;;;11.40;68.30;;;;;;6157777;23;20494;-75
2022/01/15 08:27:32;;;;;;;0.50;0.20;;;11.40;68.20;;;;;;6158828;23;20072;-76
2022/01/15 08:29:57;;;;;;;0.55;0.35;;;11.40;68.20;;;;;;6157573;23;20432;-77
2022/01/15 08:32:23;;;;;;;0.50;0.10;;;11.40;68.20;;;;;;6156611;23;20370;-77
2022/01/15 08:34:49;;;;;;;0.30;0.10;;;11.40;68.20;;;;;;6156907;23;20017;-74
2022/01/15 08:37:15;;;;;;;0.60;0.10;;;11.40;68.20;;;;;;6156846;23;20092;-76
2022/01/15 08:39:40;;;;;;;0.43;0.20;;;11.40;68.20;;;;;;6158503;23;20412;-75
2022/01/15 08:42:07;;;;;;;0.65;0.30;;;11.40;68.20;;;;;;6157674;23;20018;-76
2022/01/15 08:44:34;;;;;;;0.63;0.13;;;11.40;68.30;;;;;;6156547;23;20096;-76
2022/01/15 08:47:02;;;;;;;0.32;0.20;;;11.40;68.30;;;;;;6132295;23;20150;-75
2022/01/15 08:49:28;;;;;;;0.40;0.20;;;11.40;68.30;;;;;;6157060;23;20018;-77
2022/01/15 08:51:54;;;;;;;0.47;0.10;;;11.40;68.30;;;;;;6157952;23;20033;-74
2022/01/15 08:54:19;;;;;;;0.30;0.20;;;11.40;68.30;;;;;;6156396;23;20055;-74
2022/01/15 08:56:45;;;;;;;0.32;0.20;;;11.40;68.30;;;;;;6158754;23;20032;-75
2022/01/15 08:59:11;;;;;;;0.38;0.17;;;11.40;68.30;;;;;;6156807;23;20048;-76
2022/01/15 09:01:37;;;;;;;0.57;0.20;;;11.40;68.30;;;;;;6157777;23;20018;-76
2022/01/15 09:04:03;;;;;;;0.20;0.05;;;11.40;68.30;;;;;;6158330;23;20028;-75
2022/01/15 09:06:29;;;;;;;0.25;0.10;;;11.40;68.30;;;;;;6156867;23;20089;-74
2022/01/15 09:08:55;;;;;;;0.30;0.20;;;11.40;68.30;;;;;;6158590;23;20029;-77
2022/01/15 09:11:20;;;;;;;0.30;0.13;;;11.40;68.30;;;;;;6159849;23;20014;-76
2022/01/15 09:13:48;;;;;;;0.50;0.20;;;11.40;68.30;;;;;;6160366;23;20111;-75
2022/01/15 09:16:14;;;;;;;0.57;0.20;;;11.40;68.30;;;;;;6158907;23;20032;-74
2022/01/15 09:18:39;;;;;;;0.32;0.13;;;11.40;68.30;;;;;;6158805;23;20363;-76
2022/01/15 09:21:05;;;;;;;0.40;0.20;;;11.40;68.30;;;;;;6159023;23;20014;-74
2022/01/15 09:23:31;;;;;;;0.45;0.10;;;11.40;68.30;;;;;;6160186;23;20079;-77
2022/01/15 09:25:58;;;;;;;0.68;0.20;;;11.40;68.30;;;;;;6158869;23;20115;-77
2022/01/15 09:31:13;;;;;;;0.20;0.10;;;11.30;68.30;;;;;;6159433;23;20455;-77
2022/01/15 09:33:38;;;;;;;0.50;0.20;;;11.40;68.30;;;;;;6159548;23;20021;-74
2022/01/15 09:36:05;;;;;;;0.55;0.28;;;11.40;68.30;;;;;;6158491;23;20097;-75
2022/01/15 09:38:31;;;;;;;0.40;0.20;;;11.40;68.30;;;;;;6158568;23;20017;-76
2022/01/15 09:40:57;;;;;;;0.40;0.20;;;11.30;68.30;;;;;;6159547;23;20018;-76
2022/01/15 09:43:23;;;;;;;0.25;0.10;;;11.30;68.30;;;;;;6134295;23;20017;-76
2022/01/15 09:45:51;;;;;;;0.57;0.20;;;11.40;68.30;;;;;;6133891;23;20404;-75
2022/01/15 09:48:17;;;;;;;0.57;0.30;;;11.40;68.30;;;;;;6158194;23;20021;-76
2022/01/15 09:50:46;;;;;;;0.40;0.20;;;11.40;68.20;;;;;;6133396;23;20017;-76
2022/01/15 09:53:16;;;;;;;1.17;0.43;;;11.40;68.20;;;;;;6158652;23;20021;-76
2022/01/15 09:55:43;;;;;;;0.38;0.20;;;11.40;68.30;;;;;;6158637;23;20084;-75
2022/01/15 09:58:10;;;;;;;0.50;0.30;;;11.30;68.20;;;;;;6158365;23;20037;-75
2022/01/15 10:00:35;;;;;;;1.02;0.30;;;11.30;68.20;;;;;;6159058;23;20022;-74
2022/01/15 10:03:02;;;;;;;0.52;0.20;;;11.30;68.20;;;;;;6160106;23;20028;-74
2022/01/15 10:05:28;;;;;;;0.22;0.13;;;11.40;68.30;;;;;;6160204;23;20017;-77
2022/01/15 10:08:02;;;;;;;0.70;0.30;;;11.40;68.20;;;;;;6158420;23;20017;-74
2022/01/15 10:10:32;;;;;;;0.70;0.30;;;11.40;68.20;;;;;;6159377;23;20076;-76
2022/01/15 10:13:32;;;;;;;0.20;0.10;;;11.30;68.20;;;;;;6160476;23;20363;-75
2022/01/15 10:15:57;;;;;;;0.30;0.25;;;11.30;68.10;;;;;;6095567;23;20364;-74
2022/01/15 10:18:32;;;;;;;0.63;0.35;;;11.30;68.10;;;;;;6159664;23;20076;-75
2022/01/15 10:21:17;;;;;;;0.60;0.20;;;11.40;68.10;;;;;;6159114;23;20104;-74
2022/01/15 10:23:48;;;;;;;0.40;0.10;;;11.40;68.10;;;;;;6157714;23;20423;-76
2022/01/15 10:26:15;;;;;;;0.43;0.20;;;11.40;68.10;;;;;;6159914;23;20367;-75
2022/01/15 10:29:03;;;;;;;0.40;0.20;;;11.30;68.00;;;;;;6158344;23;20096;-74
2022/01/15 10:31:40;;;;;;;0.50;0.20;;;11.40;68.10;;;;;;6158205;23;20084;-75
2022/01/15 10:34:32;;;;;;;0.52;0.30;;;11.30;68.10;;;;;;6157665;23;20024;-77
2022/01/15 10:37:07;;;;;;;0.52;0.28;;;11.30;68.10;;;;;;6134428;23;20022;-77
2022/01/15 10:39:33;;;;;;;1.30;0.30;;;11.40;68.10;;;;;;6159807;23;20336;-74
2022/01/15 10:41:58;;;;;;;0.70;0.30;;;11.40;68.20;;;;;;6158342;23;20084;-76
2022/01/15 10:44:33;;;;;;;0.80;0.30;;;11.30;68.10;;;;;;6158696;23;20021;-76
2022/01/15 10:47:09;;;;;;;0.32;0.20;;;11.40;68.10;;;;;;6158228;23;20292;-74
2022/01/15 10:49:37;;;;;;;0.68;0.30;;;11.40;68.20;;;;;;6158811;23;20057;-77
2022/01/15 10:52:13;;;;;;;0.55;0.38;;;11.30;68.20;;;;;;6159813;23;20415;-75
2022/01/15 10:54:57;;;;;;;0.73;0.30;;;11.40;68.20;;;;;;6159098;23;20088;-77
2022/01/15 10:57:29;;;;;;;0.93;0.35;;;11.40;68.20;;;;;;6158410;23;20021;-74
2022/01/15 11:00:12;;;;;;;0.77;0.43;;;11.30;68.20;;;;;;6159354;23;20054;-76
2022/01/15 11:02:41;;;;;;;0.90;0.40;;;11.30;68.20;;;;;;6159100;23;20021;-75
2022/01/15 11:05:22;;;;;;;0.60;0.30;;;11.30;68.20;;;;;;6158825;23;20029;-76
2022/01/15 11:07:48;;;;;;;0.75;0.50;;;11.30;68.20;;;;;;6158057;23;20431;-77
2022/01/15 11:10:14;;;;;;;0.85;0.40;;;11.30;68.20;;;;;;6157944;23;20028;-77
2022/01/15 11:12:40;;;;;;;0.80;0.20;;;11.30;68.20;;;;;;6133165;23;20021;-75
2022/01/15 11:15:07;;;;;;;0.40;0.20;;;11.30;68.20;;;;;;6157956;23;20021;-74
2022/01/15 11:17:34;;;;;;;0.85;0.50;;;11.30;68.20;;;;;;6157598;23;20017;-76
2022/01/15 11:20:03;;;;;;;0.65;0.40;;;11.30;68.20;;;;;;6158425;23;20471;-77
2022/01/15 11:22:32;;;;;;;1.20;0.52;;;11.30;68.40;;;;;;6157892;23;20096;-76
2022/01/15 11:24:57;;;;;;;0.90;0.50;;;11.30;68.20;;;;;;6158858;23;20092;-76
2022/01/15 11:27:28;;;;;;;0.77;0.57;;;11.40;68.30;;;;;;6158117;23;20049;-77
2022/01/15 11:29:57;;;;;;;0.82;0.40;;;11.40;68.30;;;;;;6158919;23;20017;-75
2022/01/15 11:32:24;;;;;;;1.38;0.68;;;11.30;68.20;;;;;;6158204;23;20017;-76
2022/01/15 11:35:19;;;;;;;0.70;0.40;;;11.30;68.20;;;;;;6157385;23;20025;-75
2022/01/15 11:37:49;;;;;;;1.10;0.63;;;11.30;68.10;;;;;;6126793;23;20013;-75
2022/01/15 11:40:45;;;;;;;1.15;0.57;;;11.30;68.20;;;;;;6157166;23;20014;-75
2022/01/15 11:43:25;;;;;;;1.35;0.85;;;11.30;68.80;;;;;;6132448;23;20064;-75
2022/01/15 11:45:57;;;;;;;1.35;0.60;;;11.30;68.20;;;;;;6158320;23;20100;-77
2022/01/15 11:48:24;;;;;;;0.90;0.70;;;11.30;68.20;;;;;;6156600;23;20017;-77
2022/01/15 11:51:11;;;;;;;1.20;0.70;;;11.30;68.30;;;;;;6159139;23;20048;-77
2022/01/15 11:53:59;;;;;;;1.88;0.93;;;11.30;68.20;;;;;;6157526;23;20029;-75
2022/01/15 11:56:39;;;;;;;1.50;0.85;;;11.30;68.20;;;;;;6156787;23;20032;-76
2022/01/15 11:59:23;;;;;;;1.80;0.93;;;11.30;68.20;;;;;;6157406;23;20149;-75
2022/01/15 12:01:51;;;;;;;1.80;1.02;;;11.30;68.20;;;;;;6156646;23;20022;-76
2022/01/15 12:04:29;;;;;;;2.42;1.10;;;11.30;68.20;;;;;;6159185;23;20285;-77
2022/01/15 12:07:07;;;;;;;2.13;1.05;;;11.30;68.20;;;;;;6158202;23;20427;-76
2022/01/15 12:09:35;;;;;;;1.75;1.10;;;11.30;68.20;;;;;;6157458;23;20023;-75
2022/01/15 12:15:05;;;;;;;1.83;1.10;;;11.30;68.20;;;;;;6158331;23;20021;-77
2022/01/15 12:17:46;;;;;;;1.52;1.10;;;11.30;68.20;;;;;;6156810;23;20018;-77
2022/01/15 12:20:18;;;;;;;2.00;0.95;;;11.30;68.20;;;;;;6158299;23;20375;-76
2022/01/15 12:23:23;;;;;;;2.53;1.42;;;11.40;68.30;;;;;;6157013;23;20022;-77
2022/01/15 12:25:51;;;;;;;2.25;1.33;;;11.30;68.20;;;;;;6158054;23;20022;-75
2022/01/15 12:28:18;;;;;;;2.30;1.40;;;11.30;68.30;;;;;;6158511;23;20092;-76
2022/01/15 12:30:50;;;;;;;1.92;1.05;;;11.30;68.20;;;;;;6157026;23;20022;-76
2022/01/15 12:33:18;;;;;;;3.20;1.65;;;11.30;68.20;;;;;;6159047;23;20277;-75
2022/01/15 12:35:50;;;;;;;2.33;1.70;;;11.30;68.20;;;;;;6158702;23;20021;-75
2022/01/15 12:38:28;;;;;;;3.08;1.75;;;11.30;68.20;;;;;;6157638;23;20022;-74
2022/01/15 12:40:55;;;;;;;2.53;1.60;;;11.30;68.30;;;;;;6157042;23;20093;-75
2022/01/15 12:43:25;;;;;;;2.72;1.65;;;11.30;68.30;;;;;;6157808;23;20104;-76
2022/01/15 12:46:00;;;;;;;2.78;1.77;;;11.30;68.20;;;;;;6158659;23;20056;-76
2022/01/15 12:48:29;;;;;;;3.05;2.10;;;11.30;68.20;;;;;;6156560;23;20028;-74
2022/01/15 12:51:01;;;;;;;3.08;1.98;;;11.30;68.40;;;;;;6157384;23;20049;-76
2022/01/15 12:53:30;;;;;;;2.90;1.73;;;11.30;68.20;;;;;;6157280;23;20100;-76
2022/01/15 12:55:57;;;;;;;2.75;1.83;;;11.30;68.20;;;;;;6156916;23;20017;-75
2022/01/15 12:58:25;;;;;;;2.20;1.65;;;11.30;68.20;;;;;;6157687;23;20096;-76
2022/01/15 13:00:51;;;;;;;3.20;1.90;;;11.30;68.20;;;;;;6157427;23;20017;-76
2022/01/15 13:03:20;;;;;;;3.30;2.30;;;11.30;68.20;;;;;;6157550;23;20423;-74
2022/01/15 13:05:50;;;;;;;2.58;1.65;;;11.30;68.20;;;;;;6157923;23;20088;-76
2022/01/15 13:08:24;;;;;;;2.28;1.52;;;11.30;68.10;;;;;;6157879;23;20018;-76
2022/01/15 13:11:07;;;;;;;3.08;1.95;;;11.30;68.10;;;;;;6156696;23;20068;-75
2022/01/15 13:13:39;;;;;;;3.00;1.85;;;11.30;68.10;;;;;;6157871;23;20029;-76
2022/01/15 13:16:16;;;;;;;2.70;1.70;;;11.40;68.20;;;;;;6156627;23;20032;-75
2022/01/15 13:18:48;;;;;;;2.40;1.70;;;11.30;68.20;;;;;;6157586;23;20025;-77
2022/01/15 13:21:20;;;;;;;2.55;1.50;;;11.40;68.20;;;;;;6158725;23;20009;-75
2022/01/15 13:23:53;;;;;;;2.60;1.88;;;11.30;68.10;;;;;;6157832;23;20013;-76